createdAt,value
2023-05-23T00:02:29.366Z,24.40
2023-05-23T00:04:58.570Z,13.83
2023-05-23T00:07:28.566Z,17.10
2023-05-23T00:09:56.848Z,16.33
2023-05-23T00:12:25.317Z,14.90
2023-05-23T00:14:54.123Z,14.63
2023-05-23T00:17:25.411Z,13.10
2023-05-23T00:19:56.069Z,17.43
2023-05-23T00:22:24.422Z,14.67
2023-05-23T00:24:54.316Z,14.17
2023-05-23T00:27:22.486Z,16.13
2023-05-23T00:29:50.780Z,17.27
2023-05-23T00:32:19.108Z,14.60
2023-05-23T00:34:47.395Z,17.50
2023-05-23T00:37:16.490Z,14.93
2023-05-23T00:39:44.641Z,15.40
2023-05-23T00:42:14.569Z,14.37
2023-05-23T00:44:42.870Z,13.83
2023-05-23T00:47:13.790Z,14.13
2023-05-23T00:49:42.457Z,21.43
2023-05-23T00:52:11.541Z,13.77
2023-05-23T00:54:41.070Z,14.67
2023-05-23T00:57:11.358Z,16.43
2023-05-23T00:59:41.642Z,15.40
2023-05-23T01:02:10.666Z,14.73
2023-05-23T01:04:40.072Z,15.63
2023-05-23T01:07:08.276Z,16.83
2023-05-23T01:09:36.687Z,17.47
2023-05-23T01:12:16.270Z,17.07
2023-05-23T01:14:52.792Z,15.47
2023-05-23T01:17:28.188Z,17.37
2023-05-23T01:20:01.679Z,18.27
2023-05-23T01:22:42.794Z,16.50
2023-05-23T01:25:29.253Z,17.97
2023-05-23T01:28:03.248Z,18.80
2023-05-23T01:30:34.053Z,17.87
2023-05-23T01:33:03.434Z,15.50
2023-05-23T01:35:32.957Z,17.90
2023-05-23T01:38:01.285Z,15.57
2023-05-23T01:40:30.614Z,15.53
2023-05-23T01:43:00.371Z,19.07
2023-05-23T01:45:30.850Z,14.63
2023-05-23T01:48:00.258Z,19.70
2023-05-23T01:50:29.857Z,20.60
2023-05-23T01:52:58.630Z,17.40
2023-05-23T01:55:27.911Z,19.43
2023-05-23T01:57:57.902Z,15.00
2023-05-23T02:00:27.715Z,17.13
2023-05-23T02:02:55.988Z,17.47
2023-05-23T02:05:24.799Z,19.10
2023-05-23T02:07:53.354Z,23.00
2023-05-23T02:10:21.937Z,14.70
2023-05-23T02:12:50.353Z,19.80
2023-05-23T02:15:18.881Z,14.10
2023-05-23T02:17:49.699Z,16.57
2023-05-23T02:20:18.996Z,14.57
2023-05-23T02:22:49.814Z,16.40
2023-05-23T02:25:18.066Z,17.37
2023-05-23T02:27:46.268Z,16.63
2023-05-23T02:30:15.281Z,16.07
2023-05-23T02:32:43.840Z,20.57
2023-05-23T02:35:13.844Z,17.57
2023-05-23T02:37:42.644Z,18.17
2023-05-23T02:40:11.705Z,15.97
2023-05-23T02:42:39.909Z,18.17
2023-05-23T02:45:09.903Z,19.90
2023-05-23T02:47:38.901Z,23.10
2023-05-23T02:50:08.355Z,17.77
2023-05-23T02:52:38.290Z,17.53
2023-05-23T02:55:07.481Z,20.20
2023-05-23T02:57:41.422Z,18.20
2023-05-23T03:00:12.440Z,19.30
2023-05-23T03:02:42.984Z,18.97
2023-05-23T03:05:11.258Z,21.57
2023-05-23T03:07:40.919Z,20.37
2023-05-23T03:10:10.725Z,18.97
2023-05-23T03:12:39.853Z,17.67
2023-05-23T03:15:09.941Z,19.20
2023-05-23T03:17:41.287Z,17.00
2023-05-23T03:20:10.340Z,17.50
2023-05-23T03:22:43.724Z,20.13
2023-05-23T03:25:12.109Z,19.07
2023-05-23T03:27:40.281Z,17.53
2023-05-23T03:30:09.870Z,19.17
2023-05-23T03:32:38.382Z,16.60
2023-05-23T03:35:07.872Z,19.70
2023-05-23T03:37:36.178Z,21.90
2023-05-23T03:40:07.342Z,21.63
2023-05-23T03:42:37.970Z,21.87
2023-05-23T03:45:08.093Z,24.00
2023-05-23T03:47:36.415Z,20.50
2023-05-23T03:50:05.212Z,27.03
2023-05-23T03:52:34.573Z,20.30
2023-05-23T03:55:03.655Z,23.77
2023-05-23T03:57:33.604Z,26.43
2023-05-23T04:00:01.806Z,24.27
2023-05-23T04:02:33.042Z,25.50
2023-05-23T04:05:01.674Z,26.90
2023-05-23T04:07:30.491Z,23.77
2023-05-23T04:09:58.645Z,29.63
2023-05-23T04:12:27.155Z,25.33
2023-05-23T04:14:58.040Z,23.73
2023-05-23T04:17:29.645Z,24.57
2023-05-23T04:19:58.394Z,21.80
2023-05-23T04:22:26.891Z,23.60
2023-05-23T04:24:55.239Z,25.53
2023-05-23T04:27:26.413Z,21.00
2023-05-23T04:29:58.476Z,26.63
2023-05-23T04:32:26.851Z,25.67
2023-05-23T04:34:56.795Z,24.63
2023-05-23T04:37:26.527Z,23.00
2023-05-23T04:39:55.866Z,22.43
2023-05-23T04:42:44.704Z,25.90
2023-05-23T04:45:41.603Z,28.77
2023-05-23T04:48:27.649Z,26.60
2023-05-23T04:51:02.236Z,28.60
2023-05-23T04:53:31.382Z,27.73
2023-05-23T04:56:00.360Z,23.70
2023-05-23T04:58:29.182Z,28.27
2023-05-23T05:01:04.695Z,29.03
2023-05-23T05:03:33.707Z,32.70
2023-05-23T05:06:02.154Z,35.90
2023-05-23T05:08:30.330Z,34.03
2023-05-23T05:10:59.122Z,37.07
2023-05-23T05:13:27.600Z,36.03
2023-05-23T05:15:57.476Z,36.77
2023-05-23T05:18:29.287Z,35.80
2023-05-23T05:20:59.608Z,39.13
2023-05-23T05:23:29.539Z,33.10
2023-05-23T05:25:58.916Z,36.57
2023-05-23T05:28:27.098Z,33.40
2023-05-23T05:30:55.542Z,31.57
2023-05-23T05:33:25.233Z,34.77
2023-05-23T05:36:09.901Z,35.17
2023-05-23T05:38:38.133Z,33.60
2023-05-23T05:41:08.951Z,39.93
2023-05-23T05:43:41.234Z,34.37
2023-05-23T05:46:10.285Z,33.93
2023-05-23T05:48:38.979Z,31.63
2023-05-23T05:51:11.655Z,35.50
2023-05-23T05:53:41.370Z,41.93
2023-05-23T05:56:10.076Z,35.07
2023-05-23T05:58:40.277Z,35.80
2023-05-23T06:01:10.352Z,43.97
2023-05-23T06:03:39.096Z,45.47
2023-05-23T06:06:09.011Z,38.13
2023-05-23T06:08:40.995Z,39.43
2023-05-23T06:11:13.214Z,40.00
2023-05-23T06:13:41.644Z,46.73
2023-05-23T06:16:10.023Z,44.40
2023-05-23T06:18:38.548Z,46.60
2023-05-23T06:21:07.031Z,45.20
2023-05-23T06:23:37.294Z,43.33
2023-05-23T06:26:10.836Z,48.23
2023-05-23T06:28:40.355Z,44.23
2023-05-23T06:31:10.247Z,52.10
2023-05-23T06:33:38.588Z,56.47
2023-05-23T06:36:07.092Z,44.50
2023-05-23T06:38:35.264Z,51.43
2023-05-23T06:41:04.479Z,50.80
2023-05-23T06:43:35.297Z,46.23
2023-05-23T06:46:18.247Z,57.97
2023-05-23T06:48:46.684Z,50.90
2023-05-23T06:51:15.419Z,50.10
2023-05-23T06:53:44.391Z,45.53
2023-05-23T06:56:13.313Z,45.77
2023-05-23T06:58:53.785Z,49.17
2023-05-23T07:01:23.088Z,51.30
2023-05-23T07:03:52.644Z,60.60
2023-05-23T07:06:20.854Z,51.07
2023-05-23T07:08:49.089Z,55.67
2023-05-23T07:11:18.064Z,53.77
2023-05-23T07:13:54.075Z,49.60
2023-05-23T07:16:32.856Z,52.00
2023-05-23T07:19:07.502Z,54.70
2023-05-23T07:21:41.112Z,51.60
2023-05-23T07:24:09.928Z,54.23
2023-05-23T07:26:39.157Z,53.50
2023-05-23T07:29:09.111Z,51.53
2023-05-23T07:31:38.376Z,47.10
2023-05-23T07:34:07.227Z,52.10
2023-05-23T07:36:43.848Z,60.90
2023-05-23T07:39:14.796Z,60.40
2023-05-23T07:41:43.115Z,47.90
2023-05-23T07:44:12.764Z,53.63
2023-05-23T07:46:41.503Z,56.00
2023-05-23T07:49:10.526Z,50.63
2023-05-23T07:51:39.986Z,50.43
2023-05-23T07:54:08.642Z,65.97
2023-05-23T07:56:40.439Z,52.47
2023-05-23T07:59:09.512Z,51.93
2023-05-23T08:01:40.638Z,46.97
2023-05-23T08:04:09.489Z,43.93
2023-05-23T08:07:03.561Z,43.80
2023-05-23T08:09:53.877Z,47.50
2023-05-23T08:12:23.082Z,37.90
2023-05-23T08:14:59.889Z,41.30
2023-05-23T08:17:36.192Z,31.20
2023-05-23T08:20:06.003Z,27.97
2023-05-23T08:22:34.367Z,28.97
2023-05-23T08:25:03.254Z,23.43
2023-05-23T08:27:33.911Z,29.43
2023-05-23T08:30:09.875Z,25.40
2023-05-23T08:32:40.546Z,32.07
2023-05-23T08:35:09.628Z,24.60
2023-05-23T08:37:39.030Z,25.47
2023-05-23T08:40:14.149Z,27.07
2023-05-23T08:42:49.851Z,28.80
2023-05-23T08:45:19.360Z,26.30
2023-05-23T08:47:50.109Z,23.60
2023-05-23T08:50:22.844Z,30.53
2023-05-23T08:52:59.275Z,27.43
2023-05-23T08:55:30.411Z,30.83
2023-05-23T08:58:01.278Z,28.20
2023-05-23T09:00:51.383Z,32.50
2023-05-23T09:03:22.315Z,34.33
2023-05-23T09:06:10.190Z,34.53
2023-05-23T09:08:40.235Z,31.90
2023-05-23T09:11:13.095Z,32.03
2023-05-23T09:13:41.990Z,32.67
2023-05-23T09:16:12.941Z,34.33
2023-05-23T09:18:48.161Z,31.57
2023-05-23T09:21:18.287Z,28.97
2023-05-23T09:23:57.004Z,30.53
2023-05-23T09:26:28.102Z,29.50
2023-05-23T09:28:59.603Z,25.83
2023-05-23T09:31:29.506Z,31.20
2023-05-23T09:34:01.114Z,24.10
2023-05-23T09:36:33.821Z,27.67
2023-05-23T09:39:06.185Z,33.20
2023-05-23T09:41:35.469Z,27.33
2023-05-23T09:44:08.261Z,29.27
2023-05-23T09:46:38.546Z,21.77
2023-05-23T09:49:19.020Z,23.60
2023-05-23T09:51:59.463Z,25.60
2023-05-23T09:54:28.115Z,22.10
2023-05-23T09:56:57.738Z,22.40
2023-05-23T09:59:31.047Z,23.43
2023-05-23T10:02:01.914Z,27.57
2023-05-23T10:04:35.463Z,33.90
2023-05-23T10:07:16.239Z,21.43
2023-05-23T10:09:49.569Z,21.50
2023-05-23T10:12:42.603Z,18.40
2023-05-23T10:15:12.769Z,23.50
2023-05-23T10:18:02.154Z,19.70
2023-05-23T10:20:34.128Z,24.00
2023-05-23T10:23:05.311Z,22.50
2023-05-23T10:25:35.948Z,24.97
2023-05-23T10:28:05.197Z,18.50
2023-05-23T10:30:33.933Z,22.00
2023-05-23T10:33:03.318Z,22.07
2023-05-23T10:35:45.779Z,21.13
2023-05-23T10:38:28.332Z,27.90
2023-05-23T10:41:02.757Z,19.47
2023-05-23T10:43:35.833Z,21.53
2023-05-23T10:46:04.199Z,20.97
2023-05-23T10:48:42.305Z,22.80
2023-05-23T10:51:14.599Z,19.87
2023-05-23T10:53:45.990Z,22.83
2023-05-23T10:56:21.823Z,19.00
2023-05-23T10:58:54.300Z,17.27
2023-05-23T11:01:23.653Z,21.40
2023-05-23T11:03:55.724Z,20.23
2023-05-23T11:06:34.047Z,17.97
2023-05-23T11:09:07.561Z,21.10
2023-05-23T11:12:05.451Z,21.47
2023-05-23T11:14:37.908Z,20.63
2023-05-23T11:17:17.777Z,19.17
2023-05-23T11:20:02.065Z,17.13
2023-05-23T11:22:33.001Z,20.93
2023-05-23T11:25:07.646Z,18.60
2023-05-23T11:27:38.078Z,17.50
2023-05-23T11:30:09.016Z,18.43
2023-05-23T11:32:38.714Z,17.57
2023-05-23T11:35:09.179Z,16.90
2023-05-23T11:37:40.414Z,20.40
2023-05-23T11:40:29.106Z,16.60
2023-05-23T11:42:57.527Z,16.80
2023-05-23T11:45:27.054Z,13.43
2023-05-23T11:47:56.163Z,17.23
2023-05-23T11:50:25.703Z,22.70
2023-05-23T11:52:56.271Z,20.17
2023-05-23T11:55:25.384Z,16.10
2023-05-23T11:57:58.252Z,13.80
2023-05-23T12:00:26.779Z,13.73
2023-05-23T12:02:55.184Z,15.80
2023-05-23T12:05:23.579Z,16.13
2023-05-23T12:07:51.934Z,15.20
2023-05-23T12:10:22.729Z,14.97
2023-05-23T12:12:53.563Z,15.67
2023-05-23T12:15:27.198Z,12.10
2023-05-23T12:17:56.821Z,16.50
2023-05-23T12:20:28.824Z,11.73
2023-05-23T12:22:58.802Z,19.47
2023-05-23T12:25:28.794Z,14.10
2023-05-23T12:27:58.205Z,14.23
2023-05-23T12:30:26.457Z,14.40
2023-05-23T12:32:54.955Z,12.23
2023-05-23T12:35:27.522Z,13.33
2023-05-23T12:37:58.869Z,13.40
2023-05-23T12:40:28.663Z,13.70
2023-05-23T12:42:58.127Z,10.50
2023-05-23T12:45:34.091Z,10.70
2023-05-23T12:48:03.207Z,12.83
2023-05-23T12:50:32.074Z,11.63
2023-05-23T12:53:00.914Z,10.90
2023-05-23T12:55:30.565Z,13.23
2023-05-23T12:57:58.914Z,12.17
2023-05-23T13:00:27.342Z,13.47
2023-05-23T13:02:55.692Z,13.00
2023-05-23T13:05:24.704Z,11.37
2023-05-23T13:07:53.040Z,10.10
2023-05-23T13:10:21.498Z,8.50
2023-05-23T13:12:51.078Z,11.10
2023-05-23T13:15:19.510Z,11.00
2023-05-23T13:17:50.214Z,9.90
2023-05-23T13:20:19.021Z,10.40
2023-05-23T13:22:47.314Z,11.83
2023-05-23T13:25:16.121Z,8.57
2023-05-23T13:27:45.573Z,9.43
2023-05-23T13:30:16.910Z,7.57
2023-05-23T13:32:45.518Z,13.03
2023-05-23T13:35:13.972Z,8.40
2023-05-23T13:37:42.252Z,13.00
2023-05-23T13:40:15.056Z,6.80
2023-05-23T13:42:43.412Z,8.40
2023-05-23T13:45:12.214Z,8.20
2023-05-23T13:47:41.932Z,7.03
2023-05-23T13:50:11.381Z,11.53
2023-05-23T13:52:42.949Z,9.27
2023-05-23T13:55:12.867Z,8.53
2023-05-23T13:57:41.219Z,8.60
2023-05-23T14:00:10.618Z,7.07
2023-05-23T14:02:39.047Z,10.17
2023-05-23T14:05:11.115Z,6.23
2023-05-23T14:07:39.528Z,7.00
2023-05-23T14:10:09.467Z,5.83
2023-05-23T14:12:37.889Z,7.20
2023-05-23T14:15:06.757Z,7.70
2023-05-23T14:17:34.975Z,6.03
2023-05-23T14:20:03.687Z,6.40
2023-05-23T14:22:33.442Z,6.80
2023-05-23T14:25:01.964Z,8.80
2023-05-23T14:27:30.285Z,6.80
2023-05-23T14:29:58.776Z,8.90
2023-05-23T14:32:27.063Z,6.83
2023-05-23T14:34:55.555Z,7.90
2023-05-23T14:37:24.319Z,6.33
2023-05-23T14:39:54.654Z,8.27
2023-05-23T14:42:23.312Z,5.20
2023-05-23T14:44:51.543Z,5.37
2023-05-23T14:47:20.526Z,4.80
2023-05-23T14:49:49.041Z,4.00
2023-05-23T14:52:18.698Z,6.20
2023-05-23T14:54:47.147Z,5.23
2023-05-23T14:57:16.758Z,4.87
2023-05-23T14:59:45.041Z,5.30
2023-05-23T15:02:13.386Z,7.60
2023-05-23T15:04:42.155Z,4.50
2023-05-23T15:07:10.404Z,4.53
2023-05-23T15:09:38.946Z,4.73
2023-05-23T15:12:09.841Z,4.07
2023-05-23T15:14:39.850Z,4.67
2023-05-23T15:17:08.943Z,5.47
2023-05-23T15:19:37.913Z,5.27
2023-05-23T15:22:06.637Z,4.07
2023-05-23T15:24:35.134Z,4.13
2023-05-23T15:27:18.770Z,4.87
2023-05-23T15:29:49.857Z,5.97
2023-05-23T15:32:18.007Z,4.13
2023-05-23T15:34:46.242Z,4.80
2023-05-23T15:37:14.398Z,5.77
2023-05-23T15:39:42.931Z,4.83
2023-05-23T15:42:11.422Z,5.20
2023-05-23T15:44:39.925Z,4.83
2023-05-23T15:47:10.189Z,5.17
2023-05-23T15:49:38.553Z,5.47
2023-05-23T15:52:06.927Z,5.87
2023-05-23T15:54:35.137Z,4.90
2023-05-23T15:57:03.410Z,4.73
2023-05-23T15:59:31.822Z,6.17
2023-05-23T16:02:00.294Z,3.87
2023-05-23T16:04:30.161Z,4.07
2023-05-23T16:06:58.342Z,4.17
2023-05-23T16:09:26.968Z,6.03
2023-05-23T16:11:55.541Z,6.07
2023-05-23T16:14:23.898Z,6.30
2023-05-23T16:16:52.146Z,6.67
2023-05-23T16:19:20.503Z,4.10
2023-05-23T16:21:50.484Z,6.20
2023-05-23T16:24:19.493Z,4.67
2023-05-23T16:26:47.656Z,4.93
2023-05-23T16:29:15.917Z,5.70
2023-05-23T16:31:44.338Z,5.30
2023-05-23T16:34:12.700Z,5.10
2023-05-23T16:36:41.101Z,4.80
2023-05-23T16:39:10.789Z,6.50
2023-05-23T16:41:39.052Z,6.30
2023-05-23T16:44:07.353Z,4.80
2023-05-23T16:46:35.565Z,5.60
2023-05-23T16:49:03.781Z,5.70
2023-05-23T16:51:32.378Z,6.67
2023-05-23T16:54:01.100Z,5.47
2023-05-23T16:56:31.204Z,4.50
2023-05-23T16:58:59.394Z,5.70
2023-05-23T17:01:27.714Z,5.53
2023-05-23T17:03:57.035Z,5.70
2023-05-23T17:06:25.317Z,6.17
2023-05-23T17:08:53.512Z,6.43
2023-05-23T17:11:21.739Z,5.30
2023-05-23T17:13:52.132Z,5.53
2023-05-23T17:16:21.087Z,7.10
2023-05-23T17:18:49.583Z,7.83
2023-05-23T17:21:17.847Z,6.10
2023-05-23T17:23:46.001Z,6.87
2023-05-23T17:26:14.320Z,12.00
2023-05-23T17:28:42.417Z,9.33
2023-05-23T17:31:12.100Z,9.83
2023-05-23T17:33:41.459Z,9.80
2023-05-23T17:36:09.778Z,10.00
2023-05-23T17:38:38.673Z,7.93
2023-05-23T17:41:06.870Z,9.17
2023-05-23T17:43:35.034Z,8.77
2023-05-23T17:46:03.219Z,8.17
2023-05-23T17:48:46.406Z,8.40
2023-05-23T17:51:16.830Z,10.57
2023-05-23T17:53:45.011Z,10.90
2023-05-23T17:56:13.240Z,8.27
2023-05-23T17:58:43.918Z,7.53
2023-05-23T18:01:13.682Z,8.03
2023-05-23T18:03:43.663Z,10.33
2023-05-23T18:06:11.961Z,9.73
2023-05-23T18:08:40.092Z,11.07
2023-05-23T18:11:08.260Z,13.53
2023-05-23T18:13:36.520Z,9.30
2023-05-23T18:16:04.917Z,10.33
2023-05-23T18:18:33.556Z,11.03
2023-05-23T18:21:03.744Z,7.93
2023-05-23T18:23:32.221Z,10.20
2023-05-23T18:26:00.657Z,9.07
2023-05-23T18:28:28.813Z,8.30
2023-05-23T18:30:57.522Z,9.87
2023-05-23T18:33:28.016Z,9.50
2023-05-23T18:35:56.532Z,9.40
2023-05-23T18:38:26.258Z,12.07
2023-05-23T18:40:54.462Z,12.63
2023-05-23T18:43:23.826Z,11.40
2023-05-23T18:45:52.005Z,11.77
2023-05-23T18:48:20.654Z,8.73
2023-05-23T18:50:48.868Z,11.27
2023-05-23T18:53:17.026Z,11.83
2023-05-23T18:55:46.548Z,13.73
2023-05-23T18:58:14.799Z,14.20
2023-05-23T19:00:44.323Z,10.63
2023-05-23T19:03:12.697Z,11.43
2023-05-23T19:05:41.172Z,12.57
2023-05-23T19:08:09.804Z,10.30
2023-05-23T19:10:37.943Z,14.43
2023-05-23T19:13:08.056Z,10.17
2023-05-23T19:15:36.186Z,10.93
2023-05-23T19:18:04.713Z,12.07
2023-05-23T19:20:32.913Z,14.50
2023-05-23T19:23:01.313Z,9.67
2023-05-23T19:25:29.514Z,12.63
2023-05-23T19:27:57.750Z,18.60
2023-05-23T19:30:27.316Z,11.93
2023-05-23T19:32:55.519Z,10.87
2023-05-23T19:35:23.978Z,12.27
2023-05-23T19:37:52.339Z,12.20
2023-05-23T19:40:21.737Z,11.53
2023-05-23T19:42:50.280Z,13.50
2023-05-23T19:45:19.206Z,9.80
2023-05-23T19:47:49.020Z,12.03
2023-05-23T19:50:17.304Z,14.00
2023-05-23T19:52:45.558Z,16.07
2023-05-23T19:55:14.620Z,16.53
2023-05-23T19:57:42.860Z,17.57
2023-05-23T20:00:14.762Z,15.83
2023-05-23T20:02:44.611Z,16.70
2023-05-23T20:05:14.795Z,15.67
2023-05-23T20:07:43.243Z,21.27
2023-05-23T20:10:12.070Z,19.37
2023-05-23T20:12:40.340Z,18.97
2023-05-23T20:15:09.775Z,19.40
2023-05-23T20:17:38.130Z,20.23
2023-05-23T20:20:07.599Z,20.17
2023-05-23T20:22:37.754Z,24.50
2023-05-23T20:25:07.059Z,19.23
2023-05-23T20:27:35.347Z,21.67
2023-05-23T20:30:04.091Z,27.93
2023-05-23T20:32:32.426Z,20.90
2023-05-23T20:35:01.068Z,17.87
2023-05-23T20:37:29.433Z,17.57
2023-05-23T20:40:00.635Z,26.73
2023-05-23T20:42:31.125Z,22.57
2023-05-23T20:44:59.588Z,21.33
2023-05-23T20:47:28.338Z,15.80
2023-05-23T20:49:58.374Z,19.00
2023-05-23T20:52:27.223Z,18.03
2023-05-23T20:54:55.898Z,16.87
2023-05-23T20:57:25.854Z,17.27
2023-05-23T20:59:54.476Z,22.10
2023-05-23T21:02:22.886Z,21.50
2023-05-23T21:04:51.704Z,21.30
2023-05-23T21:07:20.316Z,18.20
2023-05-23T21:09:48.633Z,14.67
2023-05-23T21:12:16.893Z,16.50
2023-05-23T21:14:46.554Z,19.17
2023-05-23T21:17:16.026Z,19.80
2023-05-23T21:19:44.425Z,15.67
2023-05-23T21:22:12.725Z,14.33
2023-05-23T21:24:41.316Z,11.00
2023-05-23T21:27:09.877Z,12.30
2023-05-23T21:29:38.171Z,15.40
2023-05-23T21:32:08.432Z,15.47
2023-05-23T21:34:36.708Z,17.93
2023-05-23T21:37:05.503Z,16.33
2023-05-23T21:39:47.103Z,12.00
2023-05-23T21:42:19.113Z,12.20
2023-05-23T21:44:47.346Z,13.60
2023-05-23T21:47:17.182Z,13.03
2023-05-23T21:49:45.558Z,10.80
2023-05-23T21:52:13.812Z,11.73
2023-05-23T21:54:42.528Z,11.70
2023-05-23T21:57:10.935Z,10.53
2023-05-23T21:59:39.516Z,11.63
2023-05-23T22:02:07.807Z,10.70
2023-05-23T22:04:37.495Z,10.30
2023-05-23T22:07:06.083Z,11.73
2023-05-23T22:09:34.266Z,13.63
2023-05-23T22:12:02.772Z,15.30
2023-05-23T22:14:30.940Z,13.50
2023-05-23T22:17:02.204Z,15.40
2023-05-23T22:19:30.528Z,11.70
2023-05-23T22:22:00.331Z,12.47
2023-05-23T22:24:29.253Z,10.23
2023-05-23T22:26:58.384Z,11.70
2023-05-23T22:29:26.582Z,20.60
2023-05-23T22:31:54.951Z,14.63
2023-05-23T22:34:23.200Z,11.30
2023-05-23T22:36:52.201Z,10.63
2023-05-23T22:39:21.781Z,12.10
2023-05-23T22:41:50.100Z,12.73
2023-05-23T22:44:18.427Z,10.20
2023-05-23T22:46:46.758Z,17.43
2023-05-23T22:49:15.507Z,9.07
2023-05-23T22:51:44.765Z,9.67
2023-05-23T22:54:12.937Z,12.00
2023-05-23T22:56:42.556Z,12.57
2023-05-23T22:59:10.719Z,15.80
2023-05-23T23:01:39.167Z,13.50
2023-05-23T23:04:07.305Z,11.77
2023-05-23T23:06:35.714Z,9.10
2023-05-23T23:09:05.081Z,11.30
2023-05-23T23:11:33.429Z,13.90
2023-05-23T23:14:03.247Z,10.50
2023-05-23T23:16:32.128Z,9.90
2023-05-23T23:19:00.375Z,8.83
2023-05-23T23:21:28.589Z,13.03
2023-05-23T23:23:56.952Z,10.10
2023-05-23T23:26:26.141Z,8.83
2023-05-23T23:28:54.312Z,11.83
2023-05-23T23:31:23.996Z,12.67
2023-05-23T23:33:52.293Z,12.30
2023-05-23T23:36:20.499Z,10.53
2023-05-23T23:38:48.874Z,11.37
2023-05-23T23:41:17.124Z,8.87
2023-05-23T23:43:45.417Z,8.97
2023-05-23T23:46:13.896Z,14.33
2023-05-23T23:48:43.495Z,11.57
2023-05-23T23:51:12.989Z,11.73
2023-05-23T23:53:41.448Z,10.07
2023-05-23T23:56:09.626Z,11.73
2023-05-23T23:58:37.949Z,9.63
